Airfield :
LOGIN :

Register | Disclaimer

   EN    FR    IT 

 










Legend :    VFR   Marginal VFR   IFR   Intensive IFR   Very Intensive IFR
Visi :
Ceiling :
>= 8 km
>= 3000ft
5 to 8 km
1000 to 3000 ft
1500m to 5 km
500 to 1000 ft
800 to 1500m
200 to 500 ft
< 800m
< 200 ft
Symbols :   Thunderstorms  Fog  Heavy snow  Heavy precipitations  Wind > 20 kt
SIGMETs :     Misc.  Thunderstorms  Icing  Turbulence  Mountain Waves  Volcanic Ashes







- Airport Elevation : 479 ft
- IATA code : DOL
- Download approach charts


LFRG - Deauville

CURRENT METAR :
  • 181030Z AUTO 15017KT 120V180 CAVOK 08/04 Q1013 BECMG 16016G28KT

EXPIRED METARs :
  • 181000Z AUTO 15016KT CAVOK 08/05 Q1014 BECMG 16016G28KT
  • 180930Z AUTO 16017KT CAVOK 08/05 Q1014 BECMG 16016G28KT
  • 180900Z AUTO 16017KT 9999 FEW014 OVC120 08/05 Q1015 BECMG 16016G28KT
  • 180830Z AUTO 17017KT 9999 FEW013 OVC110 07/06 Q1015 BECMG 16016G28KT
  • 180800Z AUTO 16017KT 9999 BKN012 BKN120 OVC150 07/05 Q1015 BECMG 16020G30KT SCT009

TAF TAF LFRG
Valid from the 18 at 09:00 until the 18 at 18:00 UTC


180800Z 1809/1818 16016G28KT 9999 BKN012
BECMG 1809/1810 SCT020
ATIS : +33 2 31 65 65 36
No reported NOTAMs for that airfield.



MET'MAP, your aeronautical weather chart ! - Copyright ORBIFLY December 2007 - Disclaimer

ORBIFLY MET'MAP TEAM :

Programming & Development : Alexandra Zaïnal
Concept & Development : Baudouin d'Aumeries
Co-Development & Prog : Marc-Olivier Méhu
Technical & hardware support : Manuel Goepfert

Contact : metmap@orbifly.com




SOURCES & CREDITS :

   NOAA